AWQ666 WAMM-WADD
Flight info
| Callsign | AWQ666 |
|---|---|
| Flight time | N/A |
| Altitude | 38000 |
| Route | WAMM/36 N0452F380 LUAN1J LUANG W32 MKS W41 PEDET PEDE3C WADD/09 |
| Aircraft | A320/M-SDE2E3FGHIRWXY/LB1 |
Departure
| Time | 2026-04-25 06:18 |
|---|---|
| Airport | Sam Ratulangi International Airport (WAMM) |
Arrival
| Time | N/A |
|---|---|
| Airport | Denpasar I Gusti Ngurah Rai International Airport (WADD) |
| Time | Latitude | Longitude | Altitude | Speed | Heading |
|---|---|---|---|---|---|
| 2026-04-25 05:45 | 1.54351 | 124.92335 | 337 ft | 0 kts | 262° |
| 2026-04-25 06:10 | 1.54352 | 124.92344 | 336 ft | 4 kts | 262° |
| 2026-04-25 06:10 | 1.54356 | 124.92371 | 334 ft | 4 kts | 262° |
| 2026-04-25 06:10 | 1.54360 | 124.92396 | 332 ft | 4 kts | 250° |
| 2026-04-25 06:10 | 1.54374 | 124.92417 | 334 ft | 4 kts | 209° |
| 2026-04-25 06:11 | 1.54390 | 124.92424 | 331 ft | 1 kts | 189° |
| 2026-04-25 06:11 | 1.54393 | 124.92424 | 331 ft | 0 kts | 189° |
| 2026-04-25 06:14 | 1.54356 | 124.92419 | 334 ft | 8 kts | 184° |
| 2026-04-25 06:14 | 1.54304 | 124.92418 | 336 ft | 7 kts | 180° |
| 2026-04-25 06:14 | 1.54249 | 124.92417 | 336 ft | 12 kts | 180° |
| 2026-04-25 06:15 | 1.54152 | 124.92414 | 333 ft | 14 kts | 182° |
| 2026-04-25 06:15 | 1.54061 | 124.92411 | 336 ft | 13 kts | 182° |
| 2026-04-25 06:15 | 1.53980 | 124.92420 | 335 ft | 11 kts | 160° |
| 2026-04-25 06:15 | 1.53911 | 124.92434 | 336 ft | 10 kts | 177° |
| 2026-04-25 06:16 | 1.53849 | 124.92434 | 336 ft | 8 kts | 184° |
| 2026-04-25 06:16 | 1.53796 | 124.92430 | 335 ft | 7 kts | 183° |
| 2026-04-25 06:16 | 1.53751 | 124.92450 | 335 ft | 7 kts | 133° |
| 2026-04-25 06:16 | 1.53743 | 124.92493 | 333 ft | 6 kts | 94° |
| 2026-04-25 06:17 | 1.53741 | 124.92538 | 334 ft | 8 kts | 92° |
| 2026-04-25 06:17 | 1.53760 | 124.92592 | 334 ft | 9 kts | 15° |
| 2026-04-25 06:17 | 1.53828 | 124.92595 | 337 ft | 12 kts | 2° |
| 2026-04-25 06:17 | 1.54092 | 124.92604 | 335 ft | 74 kts | 1° |
| 2026-04-25 06:18 | 1.54820 | 124.92628 | 337 ft | 133 kts | 1° |
| 2026-04-25 06:18 | 1.55893 | 124.92667 | 532 ft | 164 kts | 4° |
| 2026-04-25 06:18 | 1.57071 | 124.92696 | 1156 ft | 174 kts | 4° |
| 2026-04-25 06:18 | 1.58324 | 124.92601 | 1591 ft | 192 kts | 351° |
| 2026-04-25 06:19 | 1.59684 | 124.92281 | 1883 ft | 216 kts | 347° |
| 2026-04-25 06:19 | 1.61217 | 124.91861 | 2199 ft | 240 kts | 347° |
| 2026-04-25 06:19 | 1.62887 | 124.91343 | 2699 ft | 261 kts | 337° |
| 2026-04-25 06:19 | 1.64307 | 124.90227 | 3729 ft | 257 kts | 309° |
| 2026-04-25 06:20 | 1.65071 | 124.88667 | 4856 ft | 250 kts | 283° |
| 2026-04-25 06:20 | 1.65065 | 124.86948 | 5669 ft | 250 kts | 254° |
| 2026-04-25 06:20 | 1.64268 | 124.85414 | 6407 ft | 251 kts | 225° |
| 2026-04-25 06:20 | 1.62901 | 124.84351 | 7093 ft | 251 kts | 210° |
| 2026-04-25 06:21 | 1.61414 | 124.83418 | 7808 ft | 253 kts | 210° |
| 2026-04-25 06:21 | 1.59919 | 124.82470 | 8524 ft | 255 kts | 210° |
| 2026-04-25 06:21 | 1.58413 | 124.81512 | 9263 ft | 258 kts | 210° |
| 2026-04-25 06:21 | 1.56890 | 124.80542 | 9952 ft | 261 kts | 210° |
| 2026-04-25 06:22 | 1.55351 | 124.79559 | 10587 ft | 264 kts | 210° |
| 2026-04-25 06:22 | 1.53798 | 124.78570 | 11228 ft | 266 kts | 210° |
| 2026-04-25 06:22 | 1.52181 | 124.77540 | 11516 ft | 287 kts | 210° |
| 2026-04-25 06:22 | 1.50427 | 124.76422 | 11705 ft | 310 kts | 210° |
| 2026-04-25 06:23 | 1.48563 | 124.75231 | 11876 ft | 333 kts | 211° |
| 2026-04-25 06:23 | 1.46543 | 124.73939 | 12011 ft | 356 kts | 211° |
| 2026-04-25 06:23 | 1.44370 | 124.72546 | 12166 ft | 376 kts | 211° |
| 2026-04-25 06:23 | 1.42169 | 124.71134 | 12609 ft | 384 kts | 211° |
| 2026-04-25 06:24 | 1.39908 | 124.69684 | 13189 ft | 388 kts | 211° |
| 2026-04-25 06:24 | 1.37628 | 124.68222 | 13789 ft | 392 kts | 211° |
| 2026-04-25 06:24 | 1.35320 | 124.66744 | 14298 ft | 395 kts | 211° |
| 2026-04-25 06:24 | 1.32999 | 124.65260 | 14845 ft | 398 kts | 211° |
| 2026-04-25 06:25 | 1.30660 | 124.63764 | 15385 ft | 401 kts | 211° |
| 2026-04-25 06:25 | 1.28304 | 124.62257 | 15920 ft | 403 kts | 211° |
| 2026-04-25 06:25 | 1.25932 | 124.60740 | 16451 ft | 406 kts | 211° |
| 2026-04-25 06:25 | 1.23545 | 124.59212 | 16961 ft | 409 kts | 211° |
| 2026-04-25 06:26 | 1.21143 | 124.57673 | 17478 ft | 412 kts | 211° |
| 2026-04-25 06:26 | 1.18721 | 124.56124 | 17989 ft | 415 kts | 211° |
| 2026-04-25 06:26 | 1.16275 | 124.54563 | 18455 ft | 418 kts | 211° |
| 2026-04-25 06:26 | 1.13816 | 124.52995 | 18902 ft | 420 kts | 211° |
| 2026-04-25 06:27 | 1.11344 | 124.51416 | 19349 ft | 423 kts | 211° |
| 2026-04-25 06:27 | 1.08857 | 124.49827 | 19794 ft | 425 kts | 211° |
| 2026-04-25 06:27 | 1.06358 | 124.48229 | 20219 ft | 427 kts | 211° |
| 2026-04-25 06:27 | 1.03880 | 124.46643 | 20653 ft | 430 kts | 211° |
| 2026-04-25 06:28 | 1.01323 | 124.45007 | 21075 ft | 432 kts | 211° |
| 2026-04-25 06:28 | 1.00382 | 124.44405 | 21226 ft | 433 kts | 211° |
| 2026-04-25 06:28 | 0.99037 | 124.43546 | 21448 ft | 434 kts | 211° |
| 2026-04-25 06:28 | 0.96489 | 124.41921 | 21843 ft | 436 kts | 211° |
| 2026-04-25 06:29 | 0.93922 | 124.40285 | 22222 ft | 438 kts | 211° |
| 2026-04-25 06:29 | 0.91347 | 124.38639 | 22597 ft | 441 kts | 211° |
| 2026-04-25 06:29 | 0.88758 | 124.36981 | 22965 ft | 443 kts | 211° |
| 2026-04-25 06:29 | 0.86160 | 124.35316 | 23306 ft | 445 kts | 211° |
| 2026-04-25 06:30 | 0.83539 | 124.33639 | 23628 ft | 448 kts | 211° |
| 2026-04-25 06:30 | 0.80914 | 124.31962 | 23907 ft | 450 kts | 211° |
| 2026-04-25 06:30 | 0.78271 | 124.30273 | 24174 ft | 452 kts | 211° |
| 2026-04-25 06:30 | 0.75618 | 124.28578 | 24446 ft | 454 kts | 211° |
| 2026-04-25 06:31 | 0.72951 | 124.26875 | 24708 ft | 456 kts | 211° |
| 2026-04-25 06:31 | 0.70273 | 124.25166 | 24985 ft | 457 kts | 211° |
| 2026-04-25 06:31 | 0.67586 | 124.23451 | 25245 ft | 459 kts | 211° |
| 2026-04-25 06:31 | 0.64886 | 124.21727 | 25503 ft | 461 kts | 211° |
| 2026-04-25 06:32 | 0.62179 | 124.19993 | 25757 ft | 463 kts | 211° |
| 2026-04-25 06:32 | 0.59457 | 124.18252 | 26017 ft | 466 kts | 211° |
| 2026-04-25 06:32 | 0.56722 | 124.16504 | 26266 ft | 468 kts | 211° |
| 2026-04-25 06:32 | 0.53977 | 124.14749 | 26507 ft | 470 kts | 211° |
| 2026-04-25 06:33 | 0.51221 | 124.12985 | 26737 ft | 471 kts | 211° |
| 2026-04-25 06:33 | 0.48456 | 124.11215 | 26957 ft | 473 kts | 211° |
| 2026-04-25 06:33 | 0.45676 | 124.09435 | 27163 ft | 475 kts | 211° |
| 2026-04-25 06:33 | 0.42897 | 124.07659 | 27365 ft | 477 kts | 211° |
| 2026-04-25 06:34 | 0.40086 | 124.05866 | 27592 ft | 479 kts | 210° |
| 2026-04-25 06:34 | 0.37276 | 124.04074 | 27786 ft | 480 kts | 210° |
| 2026-04-25 06:34 | 0.34457 | 124.02274 | 27997 ft | 482 kts | 210° |
| 2026-04-25 06:34 | 0.31629 | 124.00467 | 28181 ft | 483 kts | 210° |
| 2026-04-25 06:35 | 0.28796 | 123.98657 | 28365 ft | 485 kts | 210° |
| 2026-04-25 06:35 | 0.25947 | 123.96836 | 28540 ft | 486 kts | 210° |
| 2026-04-25 06:35 | 0.23101 | 123.95015 | 28781 ft | 486 kts | 210° |
| 2026-04-25 06:35 | 0.20251 | 123.93194 | 29031 ft | 485 kts | 210° |
| 2026-04-25 06:36 | 0.17410 | 123.91376 | 29280 ft | 485 kts | 210° |
| 2026-04-25 06:36 | 0.14568 | 123.89556 | 29529 ft | 485 kts | 210° |
| 2026-04-25 06:36 | 0.11767 | 123.87761 | 29781 ft | 485 kts | 210° |
| 2026-04-25 06:36 | 0.08925 | 123.85943 | 30011 ft | 485 kts | 210° |
| 2026-04-25 06:37 | 0.06168 | 123.83926 | 30226 ft | 487 kts | 219° |
| 2026-04-25 06:37 | 0.03663 | 123.81715 | 30440 ft | 487 kts | 219° |
| 2026-04-25 06:37 | 0.01127 | 123.79469 | 30665 ft | 486 kts | 219° |
| 2026-04-25 06:37 | -0.01406 | 123.77227 | 30894 ft | 486 kts | 219° |
| 2026-04-25 06:38 | -0.03934 | 123.74993 | 31131 ft | 485 kts | 219° |
| 2026-04-25 06:38 | -0.06459 | 123.72761 | 31367 ft | 485 kts | 219° |
| 2026-04-25 06:38 | -0.08984 | 123.70525 | 31606 ft | 484 kts | 219° |
| 2026-04-25 06:38 | -0.11500 | 123.68294 | 31847 ft | 484 kts | 219° |
| 2026-04-25 06:39 | -0.14020 | 123.66061 | 32096 ft | 483 kts | 219° |
| 2026-04-25 06:39 | -0.16534 | 123.63836 | 32340 ft | 483 kts | 219° |
| 2026-04-25 06:39 | -0.19048 | 123.61613 | 32582 ft | 483 kts | 219° |
| 2026-04-25 06:39 | -0.21564 | 123.59395 | 32828 ft | 482 kts | 219° |
| 2026-04-25 06:40 | -0.24075 | 123.57177 | 33083 ft | 482 kts | 219° |
| 2026-04-25 06:40 | -0.26583 | 123.54957 | 33331 ft | 481 kts | 219° |
| 2026-04-25 06:40 | -0.29081 | 123.52744 | 33589 ft | 481 kts | 219° |
| 2026-04-25 06:40 | -0.31586 | 123.50523 | 33845 ft | 480 kts | 219° |
| 2026-04-25 06:41 | -0.34078 | 123.48311 | 34076 ft | 480 kts | 219° |
| 2026-04-25 06:41 | -0.36574 | 123.46098 | 34310 ft | 479 kts | 219° |
| 2026-04-25 06:41 | -0.39062 | 123.43898 | 34544 ft | 478 kts | 219° |
| 2026-04-25 06:41 | -0.41554 | 123.41699 | 34770 ft | 477 kts | 219° |
| 2026-04-25 06:42 | -0.44041 | 123.39508 | 34999 ft | 476 kts | 219° |
| 2026-04-25 06:42 | -0.45719 | 123.38027 | 35148 ft | 476 kts | 220° |
| 2026-04-25 06:42 | -0.48194 | 123.35838 | 35368 ft | 475 kts | 220° |
| 2026-04-25 06:42 | -0.50663 | 123.33651 | 35583 ft | 474 kts | 220° |
| 2026-04-25 06:43 | -0.53125 | 123.31467 | 35796 ft | 473 kts | 220° |
| 2026-04-25 06:43 | -0.55588 | 123.29285 | 36000 ft | 472 kts | 220° |
| 2026-04-25 06:43 | -0.58047 | 123.27106 | 36199 ft | 472 kts | 220° |
| 2026-04-25 06:43 | -0.60496 | 123.24936 | 36401 ft | 471 kts | 220° |
| 2026-04-25 06:44 | -0.62915 | 123.22796 | 36597 ft | 470 kts | 220° |
| 2026-04-25 06:44 | -0.65365 | 123.20631 | 36788 ft | 469 kts | 220° |
| 2026-04-25 06:44 | -0.67805 | 123.18473 | 36987 ft | 469 kts | 220° |
| 2026-04-25 06:44 | -0.70243 | 123.16313 | 37179 ft | 468 kts | 220° |
| 2026-04-25 06:45 | -0.72678 | 123.14156 | 37352 ft | 467 kts | 220° |
| 2026-04-25 06:45 | -0.75110 | 123.12001 | 37542 ft | 467 kts | 220° |
| 2026-04-25 06:45 | -0.77538 | 123.09853 | 37716 ft | 466 kts | 220° |
| 2026-04-25 06:45 | -0.79969 | 123.07700 | 37837 ft | 467 kts | 220° |
| 2026-04-25 06:46 | -0.82400 | 123.05547 | 37857 ft | 467 kts | 220° |
| 2026-04-25 06:46 | -0.87271 | 123.01240 | 37856 ft | 468 kts | 220° |
| 2026-04-25 06:47 | -0.92165 | 122.96946 | 37857 ft | 468 kts | 219° |
| 2026-04-25 06:47 | -0.97062 | 122.92730 | 37859 ft | 468 kts | 219° |
| 2026-04-25 06:48 | -1.02005 | 122.88491 | 37866 ft | 468 kts | 219° |
| 2026-04-25 06:48 | -1.06944 | 122.84239 | 37869 ft | 469 kts | 219° |
| 2026-04-25 06:49 | -1.11888 | 122.79962 | 37877 ft | 470 kts | 219° |
| 2026-04-25 06:49 | -1.16829 | 122.75690 | 37880 ft | 470 kts | 219° |
| 2026-04-25 06:50 | -1.21770 | 122.71425 | 37885 ft | 470 kts | 219° |
| 2026-04-25 06:50 | -1.26715 | 122.67163 | 37885 ft | 469 kts | 219° |
| 2026-04-25 06:51 | -1.31664 | 122.62898 | 37878 ft | 469 kts | 219° |
| 2026-04-25 06:51 | -1.36606 | 122.58630 | 37875 ft | 470 kts | 219° |
| 2026-04-25 06:52 | -1.41545 | 122.54357 | 37864 ft | 470 kts | 219° |
| 2026-04-25 06:52 | -1.46493 | 122.50080 | 37868 ft | 470 kts | 219° |
| 2026-04-25 06:53 | -1.51448 | 122.45804 | 37865 ft | 471 kts | 219° |
| 2026-04-25 06:53 | -1.56410 | 122.41517 | 37858 ft | 471 kts | 219° |
| 2026-04-25 06:54 | -1.61369 | 122.37235 | 37859 ft | 471 kts | 219° |
| 2026-04-25 06:54 | -1.66329 | 122.32946 | 37859 ft | 471 kts | 219° |
| 2026-04-25 06:55 | -1.71295 | 122.28663 | 37856 ft | 472 kts | 219° |
| 2026-04-25 06:55 | -1.76227 | 122.24405 | 37855 ft | 472 kts | 219° |
| 2026-04-25 06:56 | -1.81229 | 122.20088 | 37854 ft | 472 kts | 219° |
| 2026-04-25 06:56 | -1.86169 | 122.15814 | 37854 ft | 473 kts | 219° |
| 2026-04-25 06:57 | -1.91178 | 122.11483 | 37848 ft | 473 kts | 219° |
| 2026-04-25 06:57 | -1.96156 | 122.07181 | 37851 ft | 473 kts | 219° |
| 2026-04-25 06:58 | -2.01141 | 122.02877 | 37848 ft | 473 kts | 219° |
| 2026-04-25 06:58 | -2.06087 | 121.98607 | 37849 ft | 473 kts | 219° |
| 2026-04-25 06:59 | -2.11067 | 121.94296 | 37848 ft | 473 kts | 219° |
| 2026-04-25 06:59 | -2.16047 | 121.89993 | 37840 ft | 474 kts | 219° |
| 2026-04-25 07:00 | -2.21033 | 121.85684 | 37847 ft | 474 kts | 219° |
| 2026-04-25 07:00 | -2.24885 | 121.82351 | 37847 ft | 474 kts | 219° |
| 2026-04-25 07:01 | -2.29879 | 121.78029 | 37854 ft | 475 kts | 219° |
| 2026-04-25 07:01 | -2.34875 | 121.73715 | 37867 ft | 475 kts | 219° |
| 2026-04-25 07:02 | -2.39876 | 121.69384 | 37863 ft | 475 kts | 219° |
| 2026-04-25 07:02 | -2.44914 | 121.65104 | 37871 ft | 475 kts | 217° |
| 2026-04-25 07:03 | -2.50038 | 121.60930 | 37870 ft | 475 kts | 217° |
| 2026-04-25 07:03 | -2.55168 | 121.56771 | 37873 ft | 475 kts | 217° |
| 2026-04-25 07:04 | -2.60286 | 121.52586 | 37871 ft | 475 kts | 217° |
| 2026-04-25 07:04 | -2.65393 | 121.48391 | 37865 ft | 475 kts | 217° |
| 2026-04-25 07:05 | -2.70496 | 121.44206 | 37863 ft | 474 kts | 217° |
| 2026-04-25 07:05 | -2.75568 | 121.40042 | 37855 ft | 474 kts | 217° |
| 2026-04-25 07:06 | -2.80668 | 121.35861 | 37852 ft | 474 kts | 217° |
| 2026-04-25 07:06 | -2.85772 | 121.31678 | 37857 ft | 474 kts | 217° |
| 2026-04-25 07:07 | -2.90869 | 121.27492 | 37855 ft | 474 kts | 217° |
| 2026-04-25 07:07 | -2.95978 | 121.23303 | 37859 ft | 474 kts | 217° |
| 2026-04-25 07:08 | -3.01083 | 121.19116 | 37861 ft | 474 kts | 217° |
| 2026-04-25 07:08 | -3.06178 | 121.14938 | 37858 ft | 474 kts | 217° |
| 2026-04-25 07:09 | -3.11033 | 121.10955 | 37862 ft | 474 kts | 217° |
| 2026-04-25 07:09 | -3.16122 | 121.06767 | 37868 ft | 474 kts | 217° |
| 2026-04-25 07:10 | -3.21215 | 121.02586 | 37862 ft | 473 kts | 217° |
| 2026-04-25 07:10 | -3.26313 | 120.98413 | 37863 ft | 473 kts | 217° |
| 2026-04-25 07:11 | -3.31412 | 120.94249 | 37863 ft | 473 kts | 217° |
| 2026-04-25 07:11 | -3.36507 | 120.90075 | 37854 ft | 473 kts | 217° |
| 2026-04-25 07:12 | -3.41599 | 120.85901 | 37842 ft | 473 kts | 217° |
| 2026-04-25 07:12 | -3.49242 | 120.79631 | 37836 ft | 473 kts | 217° |
| 2026-04-25 07:13 | -3.54336 | 120.75454 | 37836 ft | 474 kts | 217° |
| 2026-04-25 07:13 | -3.59437 | 120.71278 | 37841 ft | 474 kts | 218° |
| 2026-04-25 07:14 | -3.64539 | 120.67096 | 37833 ft | 474 kts | 218° |
| 2026-04-25 07:14 | -3.69637 | 120.62918 | 37829 ft | 474 kts | 218° |
| 2026-04-25 07:15 | -3.74744 | 120.58729 | 37837 ft | 474 kts | 218° |
| 2026-04-25 07:15 | -3.79849 | 120.54537 | 37840 ft | 475 kts | 218° |
| 2026-04-25 07:16 | -3.84922 | 120.50373 | 37840 ft | 475 kts | 218° |
| 2026-04-25 07:16 | -3.90029 | 120.46179 | 37843 ft | 475 kts | 218° |
| 2026-04-25 07:17 | -3.95145 | 120.41986 | 37845 ft | 475 kts | 218° |
| 2026-04-25 07:17 | -4.00260 | 120.37778 | 37839 ft | 475 kts | 218° |
| 2026-04-25 07:18 | -4.05374 | 120.33574 | 37841 ft | 476 kts | 218° |
| 2026-04-25 07:18 | -4.10492 | 120.29367 | 37843 ft | 476 kts | 218° |
| 2026-04-25 07:19 | -4.15610 | 120.25166 | 37837 ft | 476 kts | 218° |
| 2026-04-25 07:19 | -4.20731 | 120.20969 | 37840 ft | 476 kts | 218° |
| 2026-04-25 07:20 | -4.25848 | 120.16759 | 37833 ft | 476 kts | 218° |
| 2026-04-25 07:20 | -4.30961 | 120.12555 | 37839 ft | 476 kts | 218° |
| 2026-04-25 07:21 | -4.36073 | 120.08350 | 37841 ft | 475 kts | 218° |
| 2026-04-25 07:21 | -4.41191 | 120.04140 | 37842 ft | 476 kts | 218° |
| 2026-04-25 07:22 | -4.46309 | 119.99938 | 37849 ft | 476 kts | 218° |
| 2026-04-25 07:22 | -4.51429 | 119.95736 | 37856 ft | 475 kts | 218° |
| 2026-04-25 07:23 | -4.56505 | 119.91556 | 37854 ft | 475 kts | 218° |
| 2026-04-25 07:23 | -4.61616 | 119.87353 | 37856 ft | 475 kts | 218° |
| 2026-04-25 07:24 | -4.66724 | 119.83152 | 37854 ft | 475 kts | 218° |
| 2026-04-25 07:24 | -4.71823 | 119.78947 | 37854 ft | 474 kts | 218° |
| 2026-04-25 07:25 | -4.76921 | 119.74747 | 37861 ft | 475 kts | 218° |
| 2026-04-25 07:25 | -4.82027 | 119.70546 | 37852 ft | 475 kts | 218° |
| 2026-04-25 07:26 | -4.87137 | 119.66341 | 37856 ft | 475 kts | 217° |
| 2026-04-25 07:26 | -4.92245 | 119.62136 | 37857 ft | 475 kts | 218° |
| 2026-04-25 07:27 | -4.97352 | 119.57929 | 37854 ft | 475 kts | 218° |
| 2026-04-25 07:27 | -5.01591 | 119.54430 | 37851 ft | 475 kts | 218° |
| 2026-04-25 07:28 | -5.06276 | 119.49763 | 37842 ft | 476 kts | 227° |
| 2026-04-25 07:28 | -5.08474 | 119.47267 | 37449 ft | 481 kts | 226° |
| 2026-04-25 07:28 | -5.10709 | 119.44772 | 37161 ft | 478 kts | 227° |
| 2026-04-25 07:29 | -5.12889 | 119.42268 | 37387 ft | 475 kts | 228° |
| 2026-04-25 07:29 | -5.15041 | 119.39762 | 37640 ft | 473 kts | 228° |
| 2026-04-25 07:29 | -5.17185 | 119.37259 | 37799 ft | 474 kts | 228° |
| 2026-04-25 07:29 | -5.19343 | 119.34749 | 37838 ft | 475 kts | 228° |
| 2026-04-25 07:30 | -5.23687 | 119.29742 | 37833 ft | 476 kts | 227° |
| 2026-04-25 07:30 | -5.28052 | 119.24739 | 37828 ft | 476 kts | 227° |
| 2026-04-25 07:31 | -5.32413 | 119.19728 | 37833 ft | 476 kts | 228° |
| 2026-04-25 07:31 | -5.36736 | 119.14743 | 37832 ft | 477 kts | 228° |
| 2026-04-25 07:32 | -5.41091 | 119.09729 | 37840 ft | 477 kts | 228° |
| 2026-04-25 07:32 | -5.45453 | 119.04706 | 37842 ft | 477 kts | 228° |
| 2026-04-25 07:33 | -5.49811 | 118.99684 | 37861 ft | 477 kts | 228° |
| 2026-04-25 07:33 | -5.54180 | 118.94659 | 37865 ft | 478 kts | 228° |
| 2026-04-25 07:34 | -5.58549 | 118.89632 | 37854 ft | 478 kts | 228° |
| 2026-04-25 07:34 | -5.62914 | 118.84598 | 37863 ft | 478 kts | 228° |
| 2026-04-25 07:35 | -5.67283 | 118.79555 | 37857 ft | 478 kts | 228° |
| 2026-04-25 07:35 | -5.71655 | 118.74514 | 37858 ft | 479 kts | 228° |
| 2026-04-25 07:36 | -5.76026 | 118.69476 | 37857 ft | 479 kts | 228° |
| 2026-04-25 07:36 | -5.80403 | 118.64425 | 37866 ft | 479 kts | 228° |
| 2026-04-25 07:37 | -5.84783 | 118.59375 | 37861 ft | 479 kts | 228° |
| 2026-04-25 07:37 | -5.89139 | 118.54359 | 37868 ft | 480 kts | 229° |
| 2026-04-25 07:38 | -5.93517 | 118.49301 | 37874 ft | 479 kts | 229° |
| 2026-04-25 07:38 | -5.97886 | 118.44247 | 37865 ft | 479 kts | 229° |
| 2026-04-25 07:39 | -6.02267 | 118.39185 | 37868 ft | 479 kts | 229° |
| 2026-04-25 07:39 | -6.06649 | 118.34129 | 37868 ft | 480 kts | 229° |
| 2026-04-25 07:40 | -6.11028 | 118.29071 | 37866 ft | 479 kts | 229° |
| 2026-04-25 07:40 | -6.15403 | 118.24016 | 37865 ft | 479 kts | 229° |
| 2026-04-25 07:41 | -6.19773 | 118.18962 | 37874 ft | 479 kts | 229° |
| 2026-04-25 07:41 | -6.24143 | 118.13900 | 37869 ft | 479 kts | 229° |
| 2026-04-25 07:42 | -6.28516 | 118.08846 | 37866 ft | 479 kts | 229° |
| 2026-04-25 07:42 | -6.32891 | 118.03788 | 37868 ft | 479 kts | 229° |
| 2026-04-25 07:43 | -6.37255 | 117.98734 | 37866 ft | 479 kts | 229° |
| 2026-04-25 07:43 | -6.41591 | 117.93708 | 37869 ft | 479 kts | 229° |
| 2026-04-25 07:44 | -6.45960 | 117.88660 | 37873 ft | 478 kts | 229° |
| 2026-04-25 07:44 | -6.50318 | 117.83606 | 37872 ft | 478 kts | 229° |
| 2026-04-25 07:45 | -6.54671 | 117.78549 | 37869 ft | 478 kts | 229° |
| 2026-04-25 07:45 | -6.59035 | 117.73496 | 37879 ft | 478 kts | 229° |
| 2026-04-25 07:46 | -6.63398 | 117.68439 | 37875 ft | 478 kts | 229° |
| 2026-04-25 07:46 | -6.67756 | 117.63389 | 37875 ft | 478 kts | 229° |
| 2026-04-25 07:47 | -6.72085 | 117.58316 | 37871 ft | 478 kts | 230° |
| 2026-04-25 07:47 | -6.76363 | 117.53206 | 37874 ft | 477 kts | 230° |
| 2026-04-25 07:48 | -6.80645 | 117.48092 | 37877 ft | 477 kts | 230° |
| 2026-04-25 07:48 | -6.84907 | 117.43028 | 37878 ft | 477 kts | 230° |
| 2026-04-25 07:49 | -6.89195 | 117.37939 | 37878 ft | 477 kts | 230° |
| 2026-04-25 07:49 | -6.93481 | 117.32845 | 37881 ft | 477 kts | 230° |
| 2026-04-25 07:50 | -6.97766 | 117.27747 | 37877 ft | 476 kts | 230° |
| 2026-04-25 07:50 | -7.02046 | 117.22660 | 37879 ft | 476 kts | 230° |
| 2026-04-25 07:51 | -7.06325 | 117.17570 | 37875 ft | 476 kts | 230° |
| 2026-04-25 07:51 | -7.10607 | 117.12466 | 37872 ft | 476 kts | 230° |
| 2026-04-25 07:52 | -7.14893 | 117.07376 | 37870 ft | 477 kts | 230° |
| 2026-04-25 07:52 | -7.19176 | 117.02285 | 37875 ft | 477 kts | 230° |
| 2026-04-25 07:53 | -7.21318 | 116.99734 | 37702 ft | 476 kts | 230° |
| 2026-04-25 07:53 | -7.23445 | 116.97201 | 37212 ft | 471 kts | 230° |
| 2026-04-25 07:53 | -7.25549 | 116.94692 | 36706 ft | 466 kts | 230° |
| 2026-04-25 07:53 | -7.27626 | 116.92212 | 36209 ft | 462 kts | 230° |
| 2026-04-25 07:54 | -7.29693 | 116.89742 | 35725 ft | 458 kts | 229° |
| 2026-04-25 07:54 | -7.31736 | 116.87305 | 35252 ft | 454 kts | 229° |
| 2026-04-25 07:54 | -7.33766 | 116.84883 | 34780 ft | 450 kts | 229° |
| 2026-04-25 07:54 | -7.35750 | 116.82514 | 34326 ft | 447 kts | 229° |
| 2026-04-25 07:55 | -7.37748 | 116.80130 | 33886 ft | 443 kts | 229° |
| 2026-04-25 07:55 | -7.39734 | 116.77761 | 33392 ft | 440 kts | 229° |
| 2026-04-25 07:55 | -7.41704 | 116.75416 | 32908 ft | 436 kts | 229° |
| 2026-04-25 07:55 | -7.43656 | 116.73093 | 32444 ft | 433 kts | 229° |
| 2026-04-25 07:56 | -7.45591 | 116.70789 | 31994 ft | 429 kts | 229° |
| 2026-04-25 07:56 | -7.47507 | 116.68506 | 31556 ft | 425 kts | 229° |
| 2026-04-25 07:56 | -7.49406 | 116.66236 | 31105 ft | 421 kts | 229° |
| 2026-04-25 07:56 | -7.51312 | 116.63959 | 29590 ft | 432 kts | 228° |
| 2026-04-25 07:57 | -7.53312 | 116.61621 | 27706 ft | 449 kts | 227° |
| 2026-04-25 07:57 | -7.55346 | 116.59306 | 27290 ft | 428 kts | 227° |
| 2026-04-25 07:57 | -7.57270 | 116.57139 | 27087 ft | 404 kts | 227° |
| 2026-04-25 07:57 | -7.59122 | 116.55060 | 26840 ft | 395 kts | 226° |
| 2026-04-25 07:58 | -7.60949 | 116.53009 | 26502 ft | 388 kts | 224° |
| 2026-04-25 07:58 | -7.62830 | 116.51026 | 25017 ft | 390 kts | 220° |
| 2026-04-25 07:58 | -7.64700 | 116.49098 | 24049 ft | 379 kts | 220° |
| 2026-04-25 07:58 | -7.66499 | 116.47221 | 23101 ft | 365 kts | 220° |
| 2026-04-25 07:59 | -7.68226 | 116.45405 | 22071 ft | 353 kts | 220° |
| 2026-04-25 07:59 | -7.69899 | 116.43637 | 21051 ft | 345 kts | 220° |
| 2026-04-25 07:59 | -7.71541 | 116.41911 | 20099 ft | 335 kts | 219° |
| 2026-04-25 07:59 | -7.73173 | 116.40287 | 19253 ft | 324 kts | 217° |
| 2026-04-25 08:00 | -7.74789 | 116.38766 | 18430 ft | 313 kts | 217° |
| 2026-04-25 08:00 | -7.76280 | 116.37151 | 17146 ft | 318 kts | 224° |
| 2026-04-25 08:00 | -7.77695 | 116.35418 | 15953 ft | 319 kts | 224° |
| 2026-04-25 08:00 | -7.79101 | 116.33706 | 14906 ft | 316 kts | 224° |
| 2026-04-25 08:01 | -7.80501 | 116.32003 | 13914 ft | 312 kts | 224° |
| 2026-04-25 08:01 | -7.81862 | 116.30336 | 13036 ft | 303 kts | 225° |
| 2026-04-25 08:01 | -7.83150 | 116.28671 | 12289 ft | 304 kts | 226° |
| 2026-04-25 08:01 | -7.84427 | 116.26927 | 11649 ft | 313 kts | 229° |
| 2026-04-25 08:02 | -7.85678 | 116.25100 | 11059 ft | 320 kts | 232° |
| 2026-04-25 08:02 | -7.86743 | 116.23139 | 10688 ft | 318 kts | 240° |
| 2026-04-25 08:02 | -7.87458 | 116.21053 | 10372 ft | 314 kts | 254° |
| 2026-04-25 08:02 | -7.87620 | 116.18873 | 10046 ft | 310 kts | 268° |
| 2026-04-25 08:03 | -7.87301 | 116.16762 | 9936 ft | 297 kts | 279° |
| 2026-04-25 08:03 | -7.86750 | 116.14832 | 10030 ft | 276 kts | 281° |
| 2026-04-25 08:03 | -7.86199 | 116.12982 | 10145 ft | 285 kts | 280° |
| 2026-04-25 08:03 | -7.85677 | 116.10966 | 10146 ft | 304 kts | 278° |
| 2026-04-25 08:04 | -7.85270 | 116.08856 | 10071 ft | 307 kts | 274° |
| 2026-04-25 08:04 | -7.85045 | 116.06716 | 9999 ft | 307 kts | 268° |
| 2026-04-25 08:04 | -7.84979 | 116.04563 | 9975 ft | 308 kts | 267° |
| 2026-04-25 08:04 | -7.84880 | 116.02405 | 10050 ft | 309 kts | 269° |
| 2026-04-25 08:05 | -7.84733 | 116.00240 | 10183 ft | 311 kts | 269° |
| 2026-04-25 08:05 | -7.84600 | 115.98069 | 10203 ft | 310 kts | 269° |
| 2026-04-25 08:05 | -7.84475 | 115.95902 | 10200 ft | 310 kts | 269° |
| 2026-04-25 08:05 | -7.84351 | 115.93732 | 10197 ft | 310 kts | 268° |
| 2026-04-25 08:06 | -7.84230 | 115.91565 | 10203 ft | 310 kts | 269° |
| 2026-04-25 08:06 | -7.84115 | 115.89398 | 10233 ft | 309 kts | 267° |
| 2026-04-25 08:06 | -7.84069 | 115.87225 | 10297 ft | 309 kts | 265° |
| 2026-04-25 08:06 | -7.84112 | 115.85055 | 10373 ft | 310 kts | 263° |
| 2026-04-25 08:07 | -7.84243 | 115.82888 | 10451 ft | 310 kts | 260° |
| 2026-04-25 08:07 | -7.84462 | 115.80725 | 10527 ft | 310 kts | 258° |
| 2026-04-25 08:07 | -7.84780 | 115.78574 | 10553 ft | 310 kts | 255° |
| 2026-04-25 08:07 | -7.85204 | 115.76443 | 10578 ft | 310 kts | 252° |
| 2026-04-25 08:08 | -7.85724 | 115.74364 | 10614 ft | 310 kts | 249° |
| 2026-04-25 08:08 | -7.86471 | 115.72346 | 10809 ft | 306 kts | 235° |
| 2026-04-25 08:08 | -7.87748 | 115.70651 | 11138 ft | 304 kts | 216° |
| 2026-04-25 08:08 | -7.89491 | 115.69479 | 11396 ft | 302 kts | 195° |
| 2026-04-25 08:09 | -7.91521 | 115.69082 | 11493 ft | 296 kts | 171° |
| 2026-04-25 08:09 | -7.93488 | 115.69579 | 11656 ft | 293 kts | 147° |
| 2026-04-25 08:09 | -7.95275 | 115.70605 | 11791 ft | 299 kts | 143° |
| 2026-04-25 08:09 | -7.97092 | 115.71652 | 11956 ft | 303 kts | 145° |
| 2026-04-25 08:10 | -7.98938 | 115.72690 | 11855 ft | 304 kts | 146° |
| 2026-04-25 08:10 | -8.00896 | 115.73744 | 11696 ft | 336 kts | 147° |
| 2026-04-25 08:10 | -8.03080 | 115.74873 | 11543 ft | 363 kts | 148° |
| 2026-04-25 08:10 | -8.05345 | 115.76064 | 11301 ft | 375 kts | 148° |
| 2026-04-25 08:11 | -8.07727 | 115.77365 | 11023 ft | 397 kts | 147° |
| 2026-04-25 08:11 | -8.10158 | 115.78733 | 10760 ft | 401 kts | 147° |
| 2026-04-25 08:11 | -8.12582 | 115.80127 | 10516 ft | 401 kts | 146° |
| 2026-04-25 08:11 | -8.14977 | 115.81492 | 10367 ft | 401 kts | 147° |
| 2026-04-25 08:12 | -8.17419 | 115.82846 | 10213 ft | 401 kts | 148° |
| 2026-04-25 08:12 | -8.19874 | 115.84175 | 9809 ft | 398 kts | 148° |
| 2026-04-25 08:12 | -8.22314 | 115.85483 | 9320 ft | 395 kts | 148° |
| 2026-04-25 08:12 | -8.24738 | 115.86770 | 8842 ft | 390 kts | 148° |
| 2026-04-25 08:13 | -8.27084 | 115.87998 | 8285 ft | 380 kts | 149° |
| 2026-04-25 08:13 | -8.29426 | 115.89173 | 7695 ft | 371 kts | 150° |
| 2026-04-25 08:13 | -8.31711 | 115.90289 | 7291 ft | 358 kts | 150° |
| 2026-04-25 08:14 | -8.36020 | 115.92352 | 6806 ft | 328 kts | 151° |
| 2026-04-25 08:14 | -8.38017 | 115.93291 | 6595 ft | 298 kts | 147° |
| 2026-04-25 08:14 | -8.39625 | 115.94373 | 6305 ft | 261 kts | 134° |
| 2026-04-25 08:14 | -8.40887 | 115.95559 | 5823 ft | 236 kts | 127° |
| 2026-04-25 08:15 | -8.41634 | 115.96318 | 5406 ft | 228 kts | 129° |
| 2026-04-25 08:15 | -8.42846 | 115.97386 | 4855 ft | 235 kts | 135° |
| 2026-04-25 08:15 | -8.44194 | 115.98332 | 4456 ft | 238 kts | 142° |
| 2026-04-25 08:15 | -8.45629 | 115.99180 | 4063 ft | 239 kts | 143° |
| 2026-04-25 08:16 | -8.47036 | 116.00050 | 3760 ft | 234 kts | 140° |
| 2026-04-25 08:16 | -8.48437 | 116.00905 | 3623 ft | 237 kts | 144° |
| 2026-04-25 08:16 | -8.49871 | 116.01718 | 3585 ft | 236 kts | 142° |
| 2026-04-25 08:16 | -8.51263 | 116.02590 | 3568 ft | 235 kts | 140° |
| 2026-04-25 08:17 | -8.52638 | 116.03492 | 3494 ft | 236 kts | 140° |
| 2026-04-25 08:17 | -8.54003 | 116.04397 | 3277 ft | 234 kts | 139° |
| 2026-04-25 08:17 | -8.55341 | 116.05322 | 2985 ft | 232 kts | 138° |
| 2026-04-25 08:17 | -8.56669 | 116.06240 | 2714 ft | 231 kts | 138° |
| 2026-04-25 08:18 | -8.57962 | 116.07157 | 2604 ft | 218 kts | 136° |
| 2026-04-25 08:18 | -8.59129 | 116.08025 | 2383 ft | 201 kts | 132° |
| 2026-04-25 08:18 | -8.60076 | 116.09018 | 2098 ft | 193 kts | 118° |
| 2026-04-25 08:18 | -8.60933 | 116.10081 | 1782 ft | 197 kts | 122° |
| 2026-04-25 08:19 | -8.61871 | 116.11163 | 1656 ft | 209 kts | 125° |
| 2026-04-25 08:19 | -8.62876 | 116.12240 | 1653 ft | 212 kts | 127° |
| 2026-04-25 08:19 | -8.63937 | 116.13246 | 1481 ft | 201 kts | 131° |
| 2026-04-25 08:19 | -8.64964 | 116.14107 | 1317 ft | 180 kts | 130° |
| 2026-04-25 08:20 | -8.65792 | 116.14923 | 1316 ft | 156 kts | 117° |
| 2026-04-25 08:20 | -8.66432 | 116.15777 | 1207 ft | 151 kts | 112° |
| 2026-04-25 08:20 | -8.67002 | 116.16650 | 1018 ft | 148 kts | 110° |
| 2026-04-25 08:20 | -8.67610 | 116.17489 | 712 ft | 149 kts | 122° |
| 2026-04-25 08:21 | -8.68388 | 116.18212 | 697 ft | 154 kts | 121° |
| 2026-04-25 08:21 | -8.69116 | 116.19024 | 866 ft | 158 kts | 118° |
| 2026-04-25 08:21 | -8.69822 | 116.19890 | 929 ft | 161 kts | 116° |
| 2026-04-25 08:21 | -8.70531 | 116.20788 | 1029 ft | 166 kts | 115° |
| 2026-04-25 08:22 | -8.71238 | 116.21703 | 1107 ft | 160 kts | 116° |
| 2026-04-25 08:22 | -8.71907 | 116.22535 | 994 ft | 151 kts | 117° |
| 2026-04-25 08:22 | -8.72561 | 116.23353 | 802 ft | 153 kts | 117° |
| 2026-04-25 08:22 | -8.73228 | 116.24217 | 783 ft | 157 kts | 114° |
| 2026-04-25 08:23 | -8.73866 | 116.25125 | 724 ft | 159 kts | 113° |
| 2026-04-25 08:23 | -8.74529 | 116.26004 | 538 ft | 155 kts | 115° |
| 2026-04-25 08:23 | -8.75201 | 116.26869 | 331 ft | 151 kts | 124° |
| 2026-04-25 08:23 | -8.75703 | 116.27503 | 331 ft | 73 kts | 129° |
| 2026-04-25 08:24 | -8.75905 | 116.27753 | 332 ft | 38 kts | 129° |
| 2026-04-25 08:24 | -8.76015 | 116.27832 | 333 ft | 0 kts | 206° |
| 2026-04-25 08:24 | -8.76043 | 116.27805 | 333 ft | 11 kts | 223° |
| 2026-04-25 08:24 | -8.76108 | 116.27746 | 331 ft | 13 kts | 220° |
| 2026-04-25 08:25 | -8.76176 | 116.27681 | 331 ft | 13 kts | 247° |
| 2026-04-25 08:25 | -8.76157 | 116.27606 | 334 ft | 10 kts | 254° |
| 2026-04-25 08:25 | -8.76200 | 116.27568 | 333 ft | 8 kts | 218° |
| 2026-04-25 08:25 | -8.76217 | 116.27553 | 334 ft | 0 kts | 219° |